Time;durP1;ratioP1;P1;durP2;ratioP2;P2;SDS_P1;SDS_P2;PMS_P1;PMS_P2;Temp;Humidity;BMP_temperature;BMP_pressure;BME280_temperature;BME280_humidity;BME280_pressure;Samples;Min_cycle;Max_cycle;Signal;HPM_P1;HPM_P2
2023/12/24 00:00:07;;;;;;;2.17;1.30;;;11.50;99.90;;;;;;5075961;28;20028;-70
2023/12/24 00:02:33;;;;;;;2.28;0.40;;;11.50;99.90;;;;;;5075835;28;20385;-70
2023/12/24 00:04:59;;;;;;;0.43;0.43;;;11.60;99.90;;;;;;5075509;28;20039;-69
2023/12/24 00:07:25;;;;;;;1.65;0.55;;;11.60;99.90;;;;;;5072512;28;20420;-71
2023/12/24 00:09:51;;;;;;;0.68;0.60;;;11.60;99.90;;;;;;5063558;28;20131;-69
2023/12/24 00:12:17;;;;;;;4.45;0.45;;;11.60;99.90;;;;;;5046181;28;20026;-71
2023/12/24 00:14:43;;;;;;;0.88;0.22;;;11.60;99.90;;;;;;5059699;28;20082;-70
2023/12/24 00:17:08;;;;;;;1.35;0.22;;;11.60;99.90;;;;;;5064631;28;20447;-69
2023/12/24 00:19:34;;;;;;;0.17;0.17;;;11.50;99.90;;;;;;5075262;28;20044;-69
2023/12/24 00:22:00;;;;;;;0.10;0.10;;;11.60;99.90;;;;;;5075592;28;20073;-69
2023/12/24 00:24:26;;;;;;;0.10;0.10;;;11.60;99.90;;;;;;5075635;28;20485;-69
2023/12/24 00:26:51;;;;;;;8.15;0.88;;;11.60;99.90;;;;;;5075194;28;20462;-68
2023/12/24 00:29:18;;;;;;;6.13;0.57;;;11.50;99.90;;;;;;5075367;28;20420;-70
2023/12/24 00:31:44;;;;;;;2.67;0.55;;;11.60;99.90;;;;;;5079253;22;20041;-70
2023/12/24 00:34:09;;;;;;;0.70;0.65;;;11.60;99.90;;;;;;5055233;28;20040;-70
2023/12/24 00:36:37;;;;;;;0.00;0.00;;;11.60;99.90;;;;;;5052225;28;20033;-70
2023/12/24 00:39:04;;;;;;;4.15;0.88;;;11.70;99.90;;;;;;5075175;28;20028;-69
2023/12/24 00:41:32;;;;;;;0.73;0.73;;;11.60;99.90;;;;;;5078096;22;20040;-69
2023/12/24 00:43:59;;;;;;;1.70;0.60;;;11.60;99.90;;;;;;5047376;28;20047;-69
2023/12/24 00:46:25;;;;;;;3.22;0.65;;;11.60;99.90;;;;;;5075082;28;20472;-70
2023/12/24 00:48:51;;;;;;;0.10;0.10;;;11.70;99.90;;;;;;5074746;28;20024;-69
2023/12/24 00:51:18;;;;;;;2.97;0.70;;;11.60;99.90;;;;;;5073671;28;20131;-69
2023/12/24 00:53:44;;;;;;;4.05;0.47;;;11.60;99.90;;;;;;5073624;28;20390;-70
2023/12/24 00:56:10;;;;;;;7.00;2.53;;;11.70;99.90;;;;;;5073591;28;20062;-70
2023/12/24 00:58:36;;;;;;;0.10;0.10;;;11.60;99.90;;;;;;5060665;28;20025;-69
2023/12/24 01:01:03;;;;;;;11.77;1.20;;;11.60;99.90;;;;;;5075133;28;20040;-69
2023/12/24 01:03:29;;;;;;;0.10;0.10;;;11.60;99.90;;;;;;5061621;28;20111;-70
2023/12/24 01:05:55;;;;;;;7.57;1.23;;;11.70;99.90;;;;;;5039400;28;20057;-70
2023/12/24 01:08:21;;;;;;;8.20;1.27;;;11.70;99.90;;;;;;5065419;28;20083;-68
2023/12/24 01:10:48;;;;;;;5.15;1.17;;;11.70;99.90;;;;;;5073033;28;20032;-70
2023/12/24 01:13:18;;;;;;;0.30;0.20;;;11.70;99.90;;;;;;5073273;28;20016;-70
2023/12/24 01:15:48;;;;;;;0.63;0.55;;;11.70;99.90;;;;;;5042220;28;20543;-70
2023/12/24 01:18:14;;;;;;;2.63;0.77;;;11.70;99.90;;;;;;5060901;28;20043;-69
2023/12/24 01:20:41;;;;;;;2.50;0.50;;;11.70;99.90;;;;;;5044873;28;20033;-69
2023/12/24 01:23:07;;;;;;;2.42;0.73;;;11.80;99.90;;;;;;5070605;28;20575;-69
2023/12/24 01:25:34;;;;;;;2.47;1.08;;;11.80;99.90;;;;;;5073135;28;20111;-69
2023/12/24 01:28:00;;;;;;;0.88;0.73;;;11.80;99.90;;;;;;5060171;28;20025;-69
2023/12/24 01:30:26;;;;;;;0.52;0.30;;;11.80;99.90;;;;;;5074117;28;20033;-70
2023/12/24 01:32:51;;;;;;;2.10;0.47;;;11.80;99.90;;;;;;5073994;28;20028;-69
2023/12/24 01:35:17;;;;;;;0.93;0.50;;;11.80;99.90;;;;;;5072760;28;20063;-69
2023/12/24 01:37:43;;;;;;;3.70;0.43;;;11.80;99.90;;;;;;5074207;28;20033;-70
2023/12/24 01:40:09;;;;;;;3.20;1.25;;;11.90;99.90;;;;;;5072511;28;20035;-69
2023/12/24 01:42:35;;;;;;;0.85;0.47;;;11.80;99.90;;;;;;5073841;28;20116;-69
2023/12/24 01:45:01;;;;;;;1.55;0.50;;;11.90;99.90;;;;;;5071615;28;20115;-69
2023/12/24 01:47:27;;;;;;;2.38;0.90;;;11.90;99.90;;;;;;5052467;28;20114;-68
2023/12/24 01:49:53;;;;;;;1.20;0.50;;;11.80;99.90;;;;;;5056539;28;20051;-69
2023/12/24 01:52:19;;;;;;;3.53;0.47;;;11.70;99.90;;;;;;5053753;28;20033;-68
2023/12/24 01:54:47;;;;;;;1.85;1.48;;;11.70;99.90;;;;;;5060791;28;20100;-69
2023/12/24 01:57:14;;;;;;;0.10;0.10;;;11.70;99.90;;;;;;5066123;28;20032;-70
2023/12/24 01:59:41;;;;;;;0.00;0.00;;;11.70;99.90;;;;;;5038644;28;20465;-68
2023/12/24 02:02:09;;;;;;;2.08;0.47;;;11.70;99.90;;;;;;5064081;28;20028;-71
2023/12/24 02:04:35;;;;;;;0.20;0.20;;;11.70;99.90;;;;;;5057957;28;20017;-69
2023/12/24 02:07:02;;;;;;;0.93;0.32;;;11.70;99.90;;;;;;5073357;28;20035;-70
2023/12/24 02:09:29;;;;;;;0.30;0.30;;;11.70;99.90;;;;;;5071940;28;20362;-70
2023/12/24 02:11:55;;;;;;;10.05;0.82;;;11.70;99.90;;;;;;5072049;28;20021;-68
2023/12/24 02:14:21;;;;;;;0.40;0.30;;;11.70;99.90;;;;;;5072864;28;20126;-70
2023/12/24 02:16:48;;;;;;;0.20;0.20;;;11.80;99.90;;;;;;5039325;28;20515;-68
2023/12/24 02:19:18;;;;;;;0.28;0.28;;;11.80;99.90;;;;;;5064586;28;20037;-68
2023/12/24 02:21:45;;;;;;;0.03;0.03;;;11.80;99.90;;;;;;5057847;28;20024;-70
2023/12/24 02:24:11;;;;;;;1.00;0.55;;;11.80;99.90;;;;;;5073514;28;20396;-69
2023/12/24 02:26:52;;;;;;;0.15;0.10;;;11.90;99.90;;;;;;5071892;28;20033;-69
2023/12/24 02:29:27;;;;;;;1.17;0.60;;;11.90;99.90;;;;;;5056215;28;20035;-69
2023/12/24 02:32:14;;;;;;;0.10;0.10;;;12.00;99.90;;;;;;5073041;28;20020;-69
2023/12/24 02:34:43;;;;;;;0.10;0.10;;;12.00;99.90;;;;;;5071892;28;20025;-69
2023/12/24 02:37:10;;;;;;;0.10;0.10;;;12.00;99.90;;;;;;5061149;28;20049;-68
2023/12/24 02:39:39;;;;;;;0.30;0.20;;;12.00;99.90;;;;;;5044648;28;20036;-69
2023/12/24 02:42:09;;;;;;;0.20;0.17;;;12.10;99.90;;;;;;5069644;28;20033;-69
2023/12/24 02:44:36;;;;;;;1.27;0.35;;;12.10;99.90;;;;;;5071421;28;20435;-69
2023/12/24 02:47:02;;;;;;;5.82;0.75;;;12.20;99.90;;;;;;5071481;28;20062;-68
2023/12/24 02:49:28;;;;;;;0.00;0.00;;;12.10;99.90;;;;;;5071853;28;20032;-69
2023/12/24 02:51:54;;;;;;;0.00;0.00;;;12.20;99.90;;;;;;5072603;28;20051;-69
2023/12/24 02:54:20;;;;;;;0.20;0.20;;;12.20;99.90;;;;;;5067100;28;20024;-69
2023/12/24 02:56:46;;;;;;;0.45;0.45;;;12.20;99.90;;;;;;5063629;28;20032;-69
2023/12/24 02:59:12;;;;;;;0.20;0.20;;;12.20;99.90;;;;;;5071235;28;20024;-70
2023/12/24 03:01:38;;;;;;;0.40;0.40;;;12.20;99.90;;;;;;5074620;28;20484;-68
2023/12/24 03:04:04;;;;;;;0.75;0.52;;;12.20;99.90;;;;;;5075608;28;20024;-69
2023/12/24 03:06:30;;;;;;;0.30;0.30;;;12.20;99.90;;;;;;5077042;28;20024;-68
2023/12/24 03:08:56;;;;;;;1.45;0.32;;;12.30;99.90;;;;;;5075760;28;20021;-70
2023/12/24 03:11:22;;;;;;;0.20;0.20;;;12.30;99.90;;;;;;5075346;28;20388;-69
2023/12/24 03:13:48;;;;;;;0.40;0.40;;;12.30;99.90;;;;;;5058950;28;20032;-68
2023/12/24 03:16:14;;;;;;;0.10;0.10;;;12.40;99.90;;;;;;5067431;28;20028;-70
2023/12/24 03:18:40;;;;;;;1.30;0.73;;;12.40;99.90;;;;;;5046999;28;20017;-68
2023/12/24 03:21:07;;;;;;;0.60;0.60;;;12.40;99.90;;;;;;5067213;28;20504;-69
2023/12/24 03:23:33;;;;;;;0.25;0.20;;;12.40;99.90;;;;;;5045353;28;20029;-68
2023/12/24 03:25:59;;;;;;;0.70;0.70;;;12.40;99.90;;;;;;5069498;28;20499;-68
2023/12/24 03:28:25;;;;;;;0.00;0.00;;;12.40;99.90;;;;;;5074901;28;20029;-70
2023/12/24 03:30:51;;;;;;;0.50;0.28;;;12.40;99.90;;;;;;5075211;28;20037;-68
2023/12/24 03:33:17;;;;;;;0.00;0.00;;;12.50;99.90;;;;;;5076301;28;20123;-68
2023/12/24 03:35:44;;;;;;;0.20;0.20;;;12.50;99.90;;;;;;5075299;28;20025;-68
2023/12/24 03:38:10;;;;;;;1.50;0.38;;;12.50;99.90;;;;;;5074995;28;20021;-69
2023/12/24 03:40:36;;;;;;;0.00;0.00;;;12.60;99.90;;;;;;5076176;28;20032;-68
2023/12/24 03:43:02;;;;;;;0.00;0.00;;;12.60;99.90;;;;;;5074381;28;20025;-69
2023/12/24 03:45:28;;;;;;;0.55;0.13;;;12.60;99.90;;;;;;5075098;28;20366;-69
2023/12/24 03:47:54;;;;;;;0.30;0.30;;;12.60;99.90;;;;;;5074821;28;20032;-70
2023/12/24 03:50:20;;;;;;;0.00;0.00;;;12.60;99.90;;;;;;5076061;28;20033;-68
2023/12/24 03:52:47;;;;;;;0.00;0.00;;;12.70;99.90;;;;;;5074689;28;20389;-68
2023/12/24 03:55:12;;;;;;;0.20;0.20;;;12.70;99.90;;;;;;5058984;28;20095;-68
2023/12/24 03:57:38;;;;;;;0.10;0.10;;;12.60;99.90;;;;;;5074782;28;20029;-68
2023/12/24 04:00:05;;;;;;;3.00;0.75;;;12.70;99.90;;;;;;5074837;28;20029;-69
2023/12/24 04:02:30;;;;;;;0.10;0.10;;;12.70;99.90;;;;;;5075837;28;20025;-70
2023/12/24 04:04:56;;;;;;;4.85;0.68;;;12.70;99.90;;;;;;5076066;28;20085;-69
2023/12/24 04:07:22;;;;;;;0.20;0.20;;;12.70;99.90;;;;;;5059931;28;20037;-68
2023/12/24 04:09:48;;;;;;;0.45;0.20;;;12.70;99.90;;;;;;5075742;28;20401;-68
2023/12/24 04:12:14;;;;;;;0.10;0.10;;;12.70;99.90;;;;;;5073457;28;20025;-69
2023/12/24 04:14:40;;;;;;;0.65;0.40;;;12.70;99.90;;;;;;5075560;28;20025;-68
2023/12/24 04:17:06;;;;;;;0.00;0.00;;;12.80;99.90;;;;;;5057430;28;20032;-69
2023/12/24 04:19:32;;;;;;;7.03;0.82;;;12.80;99.90;;;;;;5074189;28;20461;-68
2023/12/24 04:21:58;;;;;;;0.50;0.50;;;12.80;99.90;;;;;;5073979;28;20107;-69
2023/12/24 04:24:25;;;;;;;0.80;0.20;;;12.80;99.90;;;;;;5074000;28;20036;-68
2023/12/24 04:26:52;;;;;;;0.50;0.20;;;12.80;99.90;;;;;;5073909;28;20078;-68
2023/12/24 04:29:17;;;;;;;0.60;0.38;;;12.80;99.90;;;;;;5048017;28;20488;-69
2023/12/24 04:31:43;;;;;;;0.00;0.00;;;12.80;99.90;;;;;;5067622;28;20052;-68
2023/12/24 04:34:09;;;;;;;1.77;0.38;;;12.80;99.90;;;;;;5065536;28;20052;-68
2023/12/24 04:36:36;;;;;;;1.40;0.65;;;12.90;99.90;;;;;;5073868;28;20030;-68
2023/12/24 04:39:02;;;;;;;0.30;0.30;;;12.80;99.90;;;;;;5073733;28;20031;-69
2023/12/24 04:41:28;;;;;;;3.67;0.68;;;12.90;99.90;;;;;;5073076;28;20055;-69
2023/12/24 04:43:55;;;;;;;5.00;0.40;;;12.90;99.90;;;;;;5073696;28;20492;-70
2023/12/24 04:46:21;;;;;;;0.73;0.47;;;12.90;99.90;;;;;;5073573;28;20021;-69
2023/12/24 04:48:48;;;;;;;1.80;0.28;;;12.90;99.90;;;;;;5073744;28;20393;-69
2023/12/24 04:51:15;;;;;;;1.08;0.85;;;12.90;99.90;;;;;;5074181;28;20021;-69
2023/12/24 04:53:41;;;;;;;1.52;0.77;;;12.90;99.90;;;;;;5056171;28;20462;-69
2023/12/24 04:56:20;;;;;;;0.00;0.00;;;12.90;99.90;;;;;;5060133;28;20060;-68
2023/12/24 04:58:47;;;;;;;1.38;0.45;;;12.90;99.90;;;;;;5073262;28;20025;-69
2023/12/24 05:01:18;;;;;;;0.90;0.32;;;13.00;99.90;;;;;;5074774;28;20454;-69
2023/12/24 05:03:45;;;;;;;0.60;0.60;;;13.00;99.90;;;;;;5074482;28;20028;-68
2023/12/24 05:06:11;;;;;;;0.25;0.25;;;13.00;99.90;;;;;;5073204;28;20051;-68
2023/12/24 05:08:39;;;;;;;5.60;1.23;;;13.00;99.90;;;;;;5073266;28;20028;-68
2023/12/24 05:11:06;;;;;;;0.00;0.00;;;13.00;99.90;;;;;;5072534;28;20493;-69
2023/12/24 05:13:32;;;;;;;0.98;0.40;;;13.00;99.90;;;;;;5073212;28;20021;-68
2023/12/24 05:15:58;;;;;;;1.10;0.60;;;13.10;99.90;;;;;;5058941;28;20039;-69
2023/12/24 05:18:24;;;;;;;0.88;0.70;;;13.10;99.90;;;;;;5071192;28;20025;-68
2023/12/24 05:20:50;;;;;;;0.13;0.13;;;13.10;99.90;;;;;;5043652;28;20108;-68
2023/12/24 05:23:19;;;;;;;0.00;0.00;;;13.20;99.90;;;;;;5047106;28;20368;-68
2023/12/24 05:25:45;;;;;;;2.80;0.57;;;13.20;99.90;;;;;;5043965;28;20070;-68
2023/12/24 05:28:11;;;;;;;5.35;0.95;;;13.20;99.90;;;;;;5053612;28;20017;-69
2023/12/24 05:30:36;;;;;;;1.88;1.65;;;13.10;99.90;;;;;;5058398;28;20526;-68
2023/12/24 05:33:02;;;;;;;2.75;0.70;;;13.20;99.90;;;;;;5057794;28;20029;-69
2023/12/24 05:35:28;;;;;;;0.88;0.63;;;13.10;99.90;;;;;;5053859;28;20107;-69
2023/12/24 05:37:54;;;;;;;0.10;0.10;;;13.10;99.90;;;;;;5054007;28;20430;-68
2023/12/24 05:40:20;;;;;;;0.60;0.60;;;13.10;99.90;;;;;;5053840;28;20108;-69
2023/12/24 05:42:46;;;;;;;1.00;0.35;;;13.10;99.90;;;;;;5052668;28;20120;-68
2023/12/24 05:45:12;;;;;;;0.98;0.57;;;13.10;99.90;;;;;;5053810;28;20052;-68
2023/12/24 05:47:38;;;;;;;0.40;0.40;;;13.10;99.90;;;;;;5053859;28;20042;-69
2023/12/24 05:50:06;;;;;;;2.22;0.25;;;13.10;99.90;;;;;;5052466;28;20402;-68
2023/12/24 05:52:32;;;;;;;0.00;0.00;;;13.10;99.90;;;;;;5053288;28;20021;-68
2023/12/24 05:54:57;;;;;;;1.35;0.43;;;13.10;99.90;;;;;;5053809;28;20495;-69
2023/12/24 05:57:23;;;;;;;0.35;0.15;;;13.20;99.90;;;;;;5042673;28;20350;-68
2023/12/24 05:59:50;;;;;;;1.10;0.47;;;13.20;99.90;;;;;;5073620;28;20089;-70
2023/12/24 06:02:18;;;;;;;0.57;0.45;;;13.20;99.90;;;;;;5073225;28;20035;-67
2023/12/24 06:04:44;;;;;;;2.38;0.50;;;13.10;99.90;;;;;;5073475;28;20024;-68
2023/12/24 06:07:10;;;;;;;5.05;0.95;;;13.20;99.90;;;;;;5072337;28;20025;-68
2023/12/24 06:09:36;;;;;;;0.43;0.35;;;13.20;99.90;;;;;;5073082;28;20021;-68
2023/12/24 06:12:03;;;;;;;0.10;0.10;;;13.20;99.90;;;;;;5073569;28;20111;-69
2023/12/24 06:14:30;;;;;;;0.10;0.10;;;13.20;99.90;;;;;;5073170;28;20068;-69
2023/12/24 06:16:57;;;;;;;0.10;0.10;;;13.20;99.90;;;;;;5073494;28;20032;-70
2023/12/24 06:19:22;;;;;;;0.10;0.10;;;13.20;99.90;;;;;;5073038;28;20033;-69
2023/12/24 06:21:49;;;;;;;0.10;0.10;;;13.20;99.90;;;;;;5073167;28;20039;-69
2023/12/24 06:24:20;;;;;;;0.45;0.40;;;13.20;99.90;;;;;;5073291;28;20085;-68
2023/12/24 06:26:47;;;;;;;0.20;0.17;;;13.20;99.90;;;;;;5066472;28;20355;-70
2023/12/24 06:29:13;;;;;;;0.90;0.20;;;13.20;99.90;;;;;;5066283;28;20036;-69
2023/12/24 06:31:39;;;;;;;1.52;0.47;;;13.20;99.90;;;;;;5072601;28;20082;-69
2023/12/24 06:34:05;;;;;;;0.17;0.10;;;13.30;99.90;;;;;;5073345;28;20021;-68
2023/12/24 06:36:31;;;;;;;0.90;0.50;;;13.30;99.90;;;;;;5072531;28;20036;-68
2023/12/24 06:38:57;;;;;;;0.20;0.20;;;13.30;99.90;;;;;;5053931;28;20033;-69
2023/12/24 06:41:23;;;;;;;0.40;0.20;;;13.30;99.90;;;;;;5048686;28;20025;-69
2023/12/24 06:43:50;;;;;;;0.00;0.00;;;13.20;99.90;;;;;;5058915;28;20072;-69
2023/12/24 06:46:16;;;;;;;0.38;0.15;;;13.20;99.90;;;;;;5059701;28;20017;-67
2023/12/24 06:48:43;;;;;;;0.60;0.57;;;13.30;99.90;;;;;;5072716;28;20024;-68
2023/12/24 06:51:09;;;;;;;0.10;0.10;;;13.20;99.90;;;;;;5061061;28;20037;-69
2023/12/24 06:53:35;;;;;;;0.30;0.30;;;13.30;99.90;;;;;;5070574;28;20031;-68
2023/12/24 06:56:01;;;;;;;1.27;0.25;;;13.20;99.90;;;;;;5058699;28;20031;-69
2023/12/24 06:58:28;;;;;;;1.65;0.30;;;13.20;99.90;;;;;;5031675;28;20405;-68
2023/12/24 07:00:54;;;;;;;0.50;0.20;;;13.30;99.90;;;;;;5069306;28;20123;-68
2023/12/24 07:03:19;;;;;;;0.95;0.38;;;13.30;99.90;;;;;;5072709;28;20027;-68
2023/12/24 07:05:45;;;;;;;0.10;0.10;;;13.30;99.90;;;;;;5072491;28;20032;-68
2023/12/24 07:08:12;;;;;;;2.33;0.32;;;13.30;99.90;;;;;;5072807;28;20023;-69
2023/12/24 07:10:38;;;;;;;0.20;0.20;;;13.30;99.90;;;;;;5072632;28;20406;-69
2023/12/24 07:13:04;;;;;;;0.10;0.10;;;13.30;99.90;;;;;;5073133;28;20116;-68
2023/12/24 07:15:38;;;;;;;0.52;0.40;;;13.30;99.90;;;;;;5072564;28;20037;-68
2023/12/24 07:18:04;;;;;;;0.30;0.15;;;13.30;99.90;;;;;;5072737;28;20028;-68
2023/12/24 07:20:30;;;;;;;0.20;0.20;;;13.40;99.90;;;;;;5072483;28;20033;-68
2023/12/24 07:22:56;;;;;;;0.95;0.13;;;13.40;99.90;;;;;;5072552;28;20473;-68
2023/12/24 07:25:22;;;;;;;0.35;0.22;;;13.40;99.90;;;;;;5063521;28;20437;-69
2023/12/24 07:27:47;;;;;;;0.35;0.30;;;13.40;99.90;;;;;;5067472;28;20105;-67
2023/12/24 07:30:13;;;;;;;0.20;0.20;;;13.50;99.90;;;;;;5072674;28;20119;-69
2023/12/24 07:32:43;;;;;;;2.38;0.30;;;13.50;99.90;;;;;;5072489;28;20036;-68
2023/12/24 07:35:10;;;;;;;0.82;0.50;;;13.50;99.90;;;;;;5072119;28;20032;-68
2023/12/24 07:37:35;;;;;;;0.30;0.30;;;13.50;99.90;;;;;;5071178;28;20025;-69
2023/12/24 07:40:01;;;;;;;0.40;0.35;;;13.50;99.90;;;;;;5072481;28;20481;-67
2023/12/24 07:42:27;;;;;;;0.80;0.50;;;13.50;99.90;;;;;;5072239;28;20784;-70
2023/12/24 07:44:53;;;;;;;0.10;0.10;;;13.50;99.90;;;;;;5070556;28;20489;-68
2023/12/24 07:47:19;;;;;;;3.95;1.48;;;13.50;99.90;;;;;;5061664;28;20207;-68
2023/12/24 07:49:45;;;;;;;0.40;0.40;;;13.60;99.90;;;;;;5075851;28;20025;-67
2023/12/24 07:52:11;;;;;;;1.08;0.52;;;13.50;99.90;;;;;;5076039;28;20028;-69
2023/12/24 07:54:36;;;;;;;3.83;1.48;;;13.60;99.90;;;;;;5068056;28;20444;-69
2023/12/24 07:57:02;;;;;;;4.00;0.63;;;13.60;99.90;;;;;;5069949;28;20374;-70
2023/12/24 07:59:28;;;;;;;6.55;1.00;;;13.60;99.90;;;;;;5076100;28;20542;-67
2023/12/24 08:01:54;;;;;;;0.63;0.55;;;13.60;99.90;;;;;;5075869;28;20146;-67
2023/12/24 08:04:20;;;;;;;0.65;0.55;;;13.70;99.90;;;;;;5067369;28;20026;-68
2023/12/24 08:06:46;;;;;;;1.10;0.60;;;13.70;99.90;;;;;;5035825;28;20116;-68
2023/12/24 08:09:12;;;;;;;0.13;0.13;;;13.70;99.90;;;;;;5050947;28;20108;-68
2023/12/24 08:11:37;;;;;;;0.45;0.38;;;13.70;99.90;;;;;;5062417;28;20036;-68
2023/12/24 08:14:04;;;;;;;0.10;0.10;;;13.70;99.90;;;;;;5075535;28;20060;-69
2023/12/24 08:16:35;;;;;;;0.40;0.32;;;13.70;99.90;;;;;;5075684;28;20473;-69
2023/12/24 08:19:02;;;;;;;3.13;0.75;;;13.70;99.90;;;;;;5061344;28;20037;-68
2023/12/24 08:21:28;;;;;;;1.02;0.95;;;13.80;99.90;;;;;;5073488;28;20020;-69
2023/12/24 08:23:54;;;;;;;1.98;1.08;;;13.80;99.90;;;;;;5040661;28;20511;-69
2023/12/24 08:26:20;;;;;;;0.38;0.38;;;13.70;99.90;;;;;;5075089;28;20024;-69
2023/12/24 08:28:46;;;;;;;0.20;0.20;;;13.80;99.90;;;;;;5074943;28;20028;-68
2023/12/24 08:31:12;;;;;;;0.52;0.52;;;13.80;99.90;;;;;;5072940;28;20040;-67
2023/12/24 08:33:38;;;;;;;0.55;0.55;;;13.80;99.90;;;;;;5067173;28;20017;-68
2023/12/24 08:36:04;;;;;;;5.90;1.20;;;13.90;99.90;;;;;;5067359;28;20215;-69
2023/12/24 08:38:30;;;;;;;1.48;1.02;;;13.90;99.90;;;;;;5064156;28;20048;-68
2023/12/24 08:40:57;;;;;;;3.35;1.63;;;13.90;99.90;;;;;;5058100;28;20484;-69
2023/12/24 08:43:22;;;;;;;4.60;1.63;;;14.00;99.90;;;;;;5074847;28;20035;-69
2023/12/24 08:45:48;;;;;;;1.58;0.95;;;13.90;99.90;;;;;;5073745;28;20034;-68
2023/12/24 08:48:14;;;;;;;0.63;0.63;;;13.90;99.90;;;;;;5074787;28;20389;-69
2023/12/24 08:50:40;;;;;;;8.23;1.02;;;14.00;99.90;;;;;;5075131;28;20013;-70
2023/12/24 08:53:05;;;;;;;5.22;1.48;;;14.10;99.90;;;;;;5074847;28;20489;-69
2023/12/24 08:55:31;;;;;;;0.65;0.65;;;14.10;99.90;;;;;;5059140;28;20029;-69
2023/12/24 08:57:58;;;;;;;0.63;0.55;;;14.20;99.90;;;;;;5046834;28;20064;-68
2023/12/24 09:00:24;;;;;;;1.38;0.77;;;14.10;99.90;;;;;;5048165;28;20063;-69
2023/12/24 09:02:51;;;;;;;10.10;2.00;;;14.20;99.90;;;;;;5074499;28;20051;-68
2023/12/24 09:05:20;;;;;;;3.78;1.63;;;14.20;99.90;;;;;;5074962;28;20052;-68
2023/12/24 09:07:46;;;;;;;0.93;0.93;;;14.20;99.90;;;;;;5074515;28;20048;-69
2023/12/24 09:10:12;;;;;;;4.40;1.58;;;14.30;99.90;;;;;;5056702;28;20033;-69
2023/12/24 09:12:38;;;;;;;2.72;1.58;;;14.30;99.90;;;;;;5074426;28;20048;-69
2023/12/24 09:15:04;;;;;;;2.25;1.52;;;14.30;99.90;;;;;;5074592;28;20033;-69
2023/12/24 09:17:30;;;;;;;3.33;1.75;;;14.40;99.90;;;;;;5073842;28;20021;-69
2023/12/24 09:19:56;;;;;;;2.22;2.10;;;14.40;99.90;;;;;;5074326;28;20397;-69
2023/12/24 09:22:23;;;;;;;3.42;1.98;;;14.40;99.90;;;;;;5056407;28;20047;-70
2023/12/24 09:24:48;;;;;;;5.63;2.30;;;14.40;99.90;;;;;;5060334;28;20024;-69
2023/12/24 09:27:14;;;;;;;7.43;2.00;;;14.40;99.90;;;;;;5074310;28;20021;-69
2023/12/24 09:29:40;;;;;;;1.30;0.73;;;14.50;99.90;;;;;;5071472;28;20508;-69
2023/12/24 09:32:06;;;;;;;6.78;1.17;;;14.50;99.90;;;;;;5053967;28;20075;-69
2023/12/24 09:34:33;;;;;;;16.52;1.23;;;14.60;99.90;;;;;;5068785;28;20025;-70
2023/12/24 09:36:59;;;;;;;5.60;1.63;;;14.50;99.90;;;;;;5072938;28;20078;-69
2023/12/24 09:39:25;;;;;;;1.13;1.02;;;14.50;99.90;;;;;;5074124;28;20269;-69
2023/12/24 09:41:52;;;;;;;10.80;3.45;;;14.50;99.90;;;;;;5074904;22;20105;-70
2023/12/24 09:44:18;;;;;;;15.48;2.50;;;14.50;99.90;;;;;;5073520;28;20146;-69
2023/12/24 09:46:44;;;;;;;4.68;0.82;;;14.50;99.90;;;;;;5073957;28;20036;-70
2023/12/24 09:49:11;;;;;;;1.13;1.05;;;14.50;99.90;;;;;;5056010;28;20063;-68
2023/12/24 09:51:39;;;;;;;17.13;3.00;;;14.50;99.90;;;;;;5056009;28;20044;-69
2023/12/24 09:54:06;;;;;;;1.83;0.50;;;14.50;99.90;;;;;;5069991;28;20373;-69
2023/12/24 09:56:32;;;;;;;7.75;1.52;;;14.50;99.90;;;;;;5063706;28;20036;-68
2023/12/24 09:58:58;;;;;;;0.08;0.08;;;14.50;99.90;;;;;;5055818;28;20388;-68
2023/12/24 10:01:23;;;;;;;1.25;0.77;;;14.40;99.90;;;;;;5073571;28;20024;-69
2023/12/24 10:03:50;;;;;;;0.70;0.68;;;14.40;99.90;;;;;;5073691;28;20514;-68
2023/12/24 10:06:16;;;;;;;0.10;0.10;;;14.40;99.90;;;;;;5073421;28;20028;-69
2023/12/24 10:08:42;;;;;;;1.80;0.50;;;14.40;99.90;;;;;;5056060;28;20034;-69
2023/12/24 10:11:12;;;;;;;1.23;0.90;;;14.40;99.90;;;;;;5055180;28;20401;-70
2023/12/24 10:13:38;;;;;;;3.50;1.75;;;14.40;99.90;;;;;;5074011;28;20033;-69
2023/12/24 10:16:05;;;;;;;7.45;1.83;;;14.40;99.90;;;;;;5073833;28;20024;-69
2023/12/24 10:18:32;;;;;;;1.45;0.80;;;14.30;99.90;;;;;;5074332;28;20439;-70
2023/12/24 10:21:08;;;;;;;5.53;1.27;;;14.30;99.90;;;;;;5054291;28;20028;-69
2023/12/24 10:23:35;;;;;;;3.88;1.48;;;14.30;99.90;;;;;;5051291;28;20024;-70
2023/12/24 10:26:06;;;;;;;10.30;1.77;;;14.30;99.90;;;;;;5074663;28;20047;-69
2023/12/24 10:28:33;;;;;;;5.55;2.33;;;14.30;99.90;;;;;;5073925;28;20078;-69
2023/12/24 10:31:07;;;;;;;3.22;0.95;;;14.30;99.90;;;;;;5073833;28;20068;-69
2023/12/24 10:33:38;;;;;;;10.00;2.35;;;14.30;99.90;;;;;;5047372;28;20024;-70
2023/12/24 10:36:04;;;;;;;4.30;1.55;;;14.30;99.90;;;;;;5074448;28;20029;-68
2023/12/24 10:38:30;;;;;;;2.47;1.27;;;14.40;99.90;;;;;;5074013;28;20024;-70
2023/12/24 10:40:57;;;;;;;2.78;1.17;;;14.30;99.90;;;;;;5074405;28;20143;-68
2023/12/24 10:43:23;;;;;;;0.20;0.20;;;14.30;99.90;;;;;;5073689;28;20024;-70
2023/12/24 10:45:50;;;;;;;1.88;0.75;;;14.30;99.90;;;;;;5074762;28;20020;-68
2023/12/24 10:48:16;;;;;;;5.50;1.40;;;14.40;99.90;;;;;;5075432;28;20521;-69
2023/12/24 10:50:43;;;;;;;1.67;1.27;;;14.40;99.90;;;;;;5074179;28;20033;-69
2023/12/24 10:53:10;;;;;;;2.35;0.95;;;14.30;99.90;;;;;;5074663;28;20036;-69
2023/12/24 10:55:37;;;;;;;0.28;0.28;;;14.30;99.90;;;;;;5052637;28;20098;-69
2023/12/24 10:58:30;;;;;;;13.25;1.33;;;14.30;99.90;;;;;;5055688;28;20041;-70
2023/12/24 11:01:07;;;;;;;1.02;0.98;;;14.40;99.90;;;;;;5074105;28;20033;-68
2023/12/24 11:03:49;;;;;;;0.57;0.22;;;14.30;99.90;;;;;;5074759;28;20032;-69
2023/12/24 11:06:36;;;;;;;11.57;1.88;;;14.40;99.90;;;;;;5074088;28;20032;-69
2023/12/24 11:09:14;;;;;;;1.20;0.30;;;14.30;99.90;;;;;;5074163;28;20034;-70
2023/12/24 11:11:55;;;;;;;2.92;1.00;;;14.40;99.90;;;;;;5072052;28;20033;-69
2023/12/24 11:14:36;;;;;;;0.47;0.40;;;14.30;99.90;;;;;;5072727;28;20452;-69
2023/12/24 11:17:05;;;;;;;1.53;0.87;;;14.50;99.90;;;;;;5072719;28;20570;-70
2023/12/24 11:19:32;;;;;;;5.28;1.75;;;14.40;99.90;;;;;;5072709;28;20475;-68
2023/12/24 11:22:11;;;;;;;2.58;1.13;;;14.30;99.90;;;;;;5055544;28;20029;-69
2023/12/24 11:24:42;;;;;;;0.38;0.38;;;14.40;99.90;;;;;;5056614;28;20029;-69
2023/12/24 11:27:11;;;;;;;0.93;0.70;;;14.40;99.90;;;;;;5076256;28;20051;-70
2023/12/24 11:29:46;;;;;;;1.55;1.02;;;14.40;99.90;;;;;;5076244;28;20026;-68
2023/12/24 11:32:27;;;;;;;3.40;0.98;;;14.40;99.90;;;;;;5076307;28;20032;-68
2023/12/24 11:34:55;;;;;;;9.30;1.63;;;14.40;99.90;;;;;;5062239;28;20116;-69
2023/12/24 11:37:34;;;;;;;7.53;0.73;;;14.50;99.90;;;;;;5076191;28;20465;-69
2023/12/24 11:40:14;;;;;;;0.38;0.25;;;14.50;99.90;;;;;;5072342;28;20029;-69
2023/12/24 11:42:50;;;;;;;3.13;0.63;;;14.50;99.90;;;;;;5067394;28;20086;-69
2023/12/24 11:45:26;;;;;;;0.82;0.63;;;14.60;99.90;;;;;;5075796;28;20385;-69
2023/12/24 11:47:53;;;;;;;1.58;0.10;;;14.50;99.90;;;;;;5075893;28;20035;-69
2023/12/24 11:50:19;;;;;;;10.02;1.90;;;14.60;99.90;;;;;;5061917;28;20069;-68
2023/12/24 11:52:47;;;;;;;2.28;1.33;;;14.60;99.90;;;;;;5075851;28;20021;-70
2023/12/24 11:55:20;;;;;;;5.38;1.80;;;14.70;99.90;;;;;;5044980;28;20441;-69
2023/12/24 11:57:48;;;;;;;15.25;1.85;;;14.70;99.90;;;;;;5061648;28;20016;-69
2023/12/24 12:00:23;;;;;;;6.38;2.30;;;14.60;99.90;;;;;;5075944;28;20032;-69
2023/12/24 12:02:55;;;;;;;7.25;1.50;;;14.70;99.90;;;;;;5057505;28;20059;-68
2023/12/24 12:05:23;;;;;;;4.63;2.05;;;14.70;99.90;;;;;;5063406;28;20028;-68
2023/12/24 12:07:49;;;;;;;1.30;0.50;;;14.70;99.90;;;;;;5074411;28;20047;-70
2023/12/24 12:10:15;;;;;;;11.30;2.60;;;14.70;99.90;;;;;;5075238;28;20031;-68
2023/12/24 12:12:41;;;;;;;0.30;0.30;;;14.70;99.90;;;;;;5069960;28;20120;-68
2023/12/24 12:15:07;;;;;;;3.40;1.05;;;14.80;99.90;;;;;;5044743;28;20061;-69
2023/12/24 12:17:33;;;;;;;2.58;1.20;;;14.80;99.90;;;;;;5070076;28;20034;-70
2023/12/24 12:19:59;;;;;;;6.63;0.80;;;14.80;99.90;;;;;;5075568;28;20383;-69
2023/12/24 12:22:25;;;;;;;0.85;0.32;;;14.90;99.90;;;;;;5075273;28;20037;-68
2023/12/24 12:24:51;;;;;;;8.70;1.42;;;14.90;99.90;;;;;;5046755;28;20017;-69
2023/12/24 12:27:16;;;;;;;2.13;1.25;;;14.80;99.90;;;;;;5035480;28;20036;-69
2023/12/24 12:29:42;;;;;;;2.97;1.08;;;14.80;99.90;;;;;;5055194;28;20031;-70
2023/12/24 12:32:09;;;;;;;2.47;0.65;;;14.90;99.90;;;;;;5075114;28;20033;-69
2023/12/24 12:34:35;;;;;;;15.15;2.10;;;14.90;99.90;;;;;;5059423;28;20025;-68
2023/12/24 12:37:01;;;;;;;0.68;0.57;;;14.90;99.90;;;;;;5062247;28;20032;-70
2023/12/24 12:39:28;;;;;;;3.53;0.50;;;14.80;99.90;;;;;;5074919;28;20036;-68
2023/12/24 12:41:53;;;;;;;5.10;1.25;;;14.80;99.90;;;;;;5069276;28;20047;-68
2023/12/24 12:44:19;;;;;;;17.42;2.47;;;14.80;99.90;;;;;;5066333;28;20119;-69